createdAt,value
2023-05-14T00:01:09.774Z,99663.79
2023-05-14T00:03:40.063Z,99657.90
2023-05-14T00:06:09.682Z,99655.88
2023-05-14T00:08:38.020Z,99657.45
2023-05-14T00:11:09.114Z,99654.47
2023-05-14T00:13:37.664Z,99655.64
2023-05-14T00:16:06.985Z,99659.31
2023-05-14T00:18:35.535Z,99663.74
2023-05-14T00:21:04.129Z,99662.20
2023-05-14T00:23:32.318Z,99662.73
2023-05-14T00:26:00.781Z,99661.72
2023-05-14T00:28:29.025Z,99662.48
2023-05-14T00:30:57.454Z,99662.55
2023-05-14T00:33:25.802Z,99658.16
2023-05-14T00:35:54.009Z,99656.54
2023-05-14T00:38:24.214Z,99662.20
2023-05-14T00:40:52.590Z,99662.60
2023-05-14T00:43:22.848Z,99664.19
2023-05-14T00:45:52.852Z,99661.85
2023-05-14T00:48:24.167Z,99661.83
2023-05-14T00:50:52.779Z,99661.39
2023-05-14T00:53:21.437Z,99662.11
2023-05-14T00:55:50.434Z,99663.98
2023-05-14T00:58:19.571Z,99663.38
2023-05-14T01:00:48.280Z,99663.77
2023-05-14T01:03:16.801Z,99662.11
2023-05-14T01:06:13.725Z,99660.30
2023-05-14T01:09:10.091Z,99658.08
2023-05-14T01:11:47.173Z,99659.11
2023-05-14T01:14:24.706Z,99657.52
2023-05-14T01:16:58.683Z,99656.86
2023-05-14T01:19:46.773Z,99657.20
2023-05-14T01:22:15.004Z,99656.34
2023-05-14T01:24:43.611Z,99653.59
2023-05-14T01:27:17.907Z,99656.43
2023-05-14T01:29:53.365Z,99654.73
2023-05-14T01:32:24.655Z,99650.61
2023-05-14T01:34:56.124Z,99651.21
2023-05-14T01:37:25.772Z,99651.43
2023-05-14T01:39:56.584Z,99651.23
2023-05-14T01:42:26.463Z,99646.38
2023-05-14T01:44:55.763Z,99650.02
2023-05-14T01:47:24.035Z,99649.36
2023-05-14T01:49:52.390Z,99654.05
2023-05-14T01:52:21.386Z,99656.81
2023-05-14T01:54:49.703Z,99655.21
2023-05-14T01:57:18.108Z,99655.90
2023-05-14T01:59:46.553Z,99657.46
2023-05-14T02:02:14.882Z,99659.10
2023-05-14T02:04:43.623Z,99658.73
2023-05-14T02:07:12.676Z,99661.05
2023-05-14T02:09:41.253Z,99656.56
2023-05-14T02:12:09.893Z,99653.09
2023-05-14T02:14:38.288Z,99651.59
2023-05-14T02:17:06.514Z,99650.57
2023-05-14T02:19:34.753Z,99645.89
2023-05-14T02:22:03.224Z,99639.80
2023-05-14T02:24:31.489Z,99638.14
2023-05-14T02:27:01.216Z,99638.67
2023-05-14T02:29:29.865Z,99636.91
2023-05-14T02:31:58.369Z,99635.04
2023-05-14T02:34:27.193Z,99629.73
2023-05-14T02:36:56.131Z,99624.30
2023-05-14T02:39:24.554Z,99622.24
2023-05-14T02:41:52.692Z,99620.60
2023-05-14T02:44:20.986Z,99620.17
2023-05-14T02:46:49.256Z,99615.27
2023-05-14T02:49:17.572Z,99609.09
2023-05-14T02:51:45.903Z,99603.10
2023-05-14T02:54:16.553Z,99599.20
2023-05-14T02:56:44.808Z,99592.77
2023-05-14T02:59:13.300Z,99589.77
2023-05-14T03:01:42.559Z,99596.34
2023-05-14T03:04:11.459Z,99597.92
2023-05-14T03:06:39.846Z,99598.66
2023-05-14T03:09:08.147Z,99598.08
2023-05-14T03:11:36.727Z,99597.73
2023-05-14T03:14:04.995Z,99597.83
2023-05-14T03:16:33.247Z,99596.26
2023-05-14T03:19:01.653Z,99592.89
2023-05-14T03:21:31.918Z,99589.12
2023-05-14T03:24:03.157Z,99591.54
2023-05-14T03:26:31.541Z,99593.88
2023-05-14T03:28:59.760Z,99593.17
2023-05-14T03:31:28.207Z,99593.35
2023-05-14T03:33:58.060Z,99589.41
2023-05-14T03:36:26.399Z,99588.70
2023-05-14T03:38:54.627Z,99591.28
2023-05-14T03:41:23.129Z,99592.60
2023-05-14T03:43:51.578Z,99591.30
2023-05-14T03:46:19.831Z,99592.13
2023-05-14T03:48:48.234Z,99597.28
2023-05-14T03:51:16.777Z,99599.79
2023-05-14T03:53:47.955Z,99598.75
2023-05-14T03:56:16.312Z,99596.73
2023-05-14T03:58:44.604Z,99595.71
2023-05-14T04:01:12.793Z,99592.88
2023-05-14T04:03:41.635Z,99590.92
2023-05-14T04:06:10.140Z,99585.02
2023-05-14T04:08:38.415Z,99583.26
2023-05-14T04:11:07.456Z,99584.02
2023-05-14T04:13:35.725Z,99586.77
2023-05-14T04:16:04.230Z,99586.04
2023-05-14T04:18:35.443Z,99584.98
2023-05-14T04:21:03.996Z,99585.23
2023-05-14T04:23:32.268Z,99583.64
2023-05-14T04:26:00.616Z,99581.98
2023-05-14T04:28:28.845Z,99580.68
2023-05-14T04:30:57.156Z,99577.89
2023-05-14T04:33:25.392Z,99576.80
2023-05-14T04:35:53.662Z,99572.79
2023-05-14T04:38:21.965Z,99569.80
2023-05-14T04:40:50.357Z,99564.16
2023-05-14T04:43:18.645Z,99564.31
2023-05-14T04:45:47.007Z,99563.20
2023-05-14T04:48:15.403Z,99563.77
2023-05-14T04:50:44.352Z,99558.02
2023-05-14T04:53:12.775Z,99561.19
2023-05-14T04:55:41.472Z,99560.67
2023-05-14T04:58:09.790Z,99561.02
2023-05-14T05:00:38.439Z,99554.13
2023-05-14T05:03:07.009Z,99551.27
2023-05-14T05:05:35.540Z,99549.30
2023-05-14T05:08:03.981Z,99554.06
2023-05-14T05:10:32.354Z,99557.69
2023-05-14T05:13:00.636Z,99557.33
2023-05-14T05:15:28.945Z,99559.48
2023-05-14T05:17:57.264Z,99564.84
2023-05-14T05:20:28.154Z,99559.31
2023-05-14T05:22:57.225Z,99560.96
2023-05-14T05:25:25.493Z,99564.45
2023-05-14T05:27:53.739Z,99564.31
2023-05-14T05:30:22.258Z,99563.82
2023-05-14T05:32:50.975Z,99559.68
2023-05-14T05:35:19.361Z,99554.80
2023-05-14T05:37:47.635Z,99556.86
2023-05-14T05:40:16.017Z,99554.27
2023-05-14T05:42:44.334Z,99551.88
2023-05-14T05:45:12.562Z,99550.23
2023-05-14T05:47:40.927Z,99550.81
2023-05-14T05:50:11.224Z,99548.13
2023-05-14T05:52:39.671Z,99548.40
2023-05-14T05:55:08.388Z,99550.99
2023-05-14T05:57:36.725Z,99547.79
2023-05-14T06:00:16.411Z,99541.60
2023-05-14T06:02:44.730Z,99537.63
2023-05-14T06:05:13.461Z,99538.00
2023-05-14T06:07:41.777Z,99541.81
2023-05-14T06:10:10.385Z,99539.36
2023-05-14T06:12:38.665Z,99536.39
2023-05-14T06:15:07.455Z,99534.58
2023-05-14T06:17:35.766Z,99533.25
2023-05-14T06:20:09.416Z,99533.95
2023-05-14T06:22:38.092Z,99530.95
2023-05-14T06:25:07.008Z,99525.38
2023-05-14T06:27:35.366Z,99525.13
2023-05-14T06:30:03.835Z,99526.02
2023-05-14T06:32:32.217Z,99530.10
2023-05-14T06:35:00.453Z,99524.50
2023-05-14T06:37:28.696Z,99520.81
2023-05-14T06:39:58.050Z,99518.82
2023-05-14T06:42:26.657Z,99520.55
2023-05-14T06:44:54.983Z,99524.02
2023-05-14T06:47:23.433Z,99519.67
2023-05-14T06:49:56.013Z,99519.67
2023-05-14T06:52:25.765Z,99514.02
2023-05-14T06:54:54.038Z,99510.98
2023-05-14T06:57:22.326Z,99508.39
2023-05-14T06:59:50.686Z,99505.30
2023-05-14T07:02:18.970Z,99505.80
2023-05-14T07:04:47.326Z,99506.05
2023-05-14T07:07:18.351Z,99505.06
2023-05-14T07:09:47.065Z,99501.23
2023-05-14T07:12:15.335Z,99506.27
2023-05-14T07:14:43.662Z,99511.20
2023-05-14T07:17:12.040Z,99516.59
2023-05-14T07:19:41.024Z,99518.29
2023-05-14T07:22:09.400Z,99523.02
2023-05-14T07:24:37.674Z,99520.79
2023-05-14T07:27:06.416Z,99522.90
2023-05-14T07:29:35.208Z,99528.41
2023-05-14T07:32:03.766Z,99528.59
2023-05-14T07:34:32.120Z,99523.65
2023-05-14T07:37:01.343Z,99524.21
2023-05-14T07:39:29.647Z,99517.52
2023-05-14T07:41:58.078Z,99513.05
2023-05-14T07:44:26.387Z,99510.70
2023-05-14T07:46:54.620Z,99507.27
2023-05-14T07:49:23.067Z,99502.41
2023-05-14T07:51:53.905Z,99494.19
2023-05-14T07:54:24.932Z,99487.54
2023-05-14T07:56:53.376Z,99484.11
2023-05-14T07:59:21.860Z,99484.17
2023-05-14T08:01:50.283Z,99481.08
2023-05-14T08:04:18.822Z,99474.55
2023-05-14T08:06:51.023Z,99471.79
2023-05-14T08:09:21.047Z,99466.66
2023-05-14T08:11:49.752Z,99468.16
2023-05-14T08:14:18.306Z,99464.52
2023-05-14T08:16:46.763Z,99461.52
2023-05-14T08:19:16.731Z,99454.52
2023-05-14T08:21:45.416Z,99456.52
2023-05-14T08:24:15.167Z,99455.77
2023-05-14T08:26:46.401Z,99445.51
2023-05-14T08:29:16.689Z,99440.84
2023-05-14T08:31:49.917Z,99436.90
2023-05-14T08:34:19.222Z,99434.52
2023-05-14T08:36:49.855Z,99432.36
2023-05-14T08:39:25.735Z,99431.73
2023-05-14T08:41:55.747Z,99433.85
2023-05-14T08:44:38.889Z,99433.64
2023-05-14T08:47:09.098Z,99436.83
2023-05-14T08:49:45.056Z,99431.92
2023-05-14T08:52:13.519Z,99427.75
2023-05-14T08:54:42.140Z,99422.95
2023-05-14T08:57:13.120Z,99421.05
2023-05-14T08:59:43.414Z,99424.52
2023-05-14T09:05:04.326Z,99423.27
2023-05-14T09:07:32.878Z,99419.25
2023-05-14T09:10:02.817Z,99415.85
2023-05-14T09:12:31.465Z,99411.88
2023-05-14T09:14:59.794Z,99417.17
2023-05-14T09:17:28.317Z,99408.73
2023-05-14T09:19:56.645Z,99402.80
2023-05-14T09:22:25.024Z,99405.39
2023-05-14T09:25:14.715Z,99399.96
2023-05-14T09:27:49.870Z,99396.10
2023-05-14T09:30:18.252Z,99391.56
2023-05-14T09:32:50.038Z,99390.84
2023-05-14T09:35:25.570Z,99390.05
2023-05-14T09:37:54.892Z,99386.75
2023-05-14T09:40:24.586Z,99384.02
2023-05-14T09:42:53.476Z,99380.75
2023-05-14T09:45:22.039Z,99370.39
2023-05-14T09:47:51.709Z,99368.99
2023-05-14T09:50:20.020Z,99370.57
2023-05-14T09:52:48.382Z,99362.55
2023-05-14T09:55:16.800Z,99360.27
2023-05-14T09:57:45.253Z,99351.29
2023-05-14T10:00:14.315Z,99354.55
2023-05-14T10:02:45.209Z,99356.45
2023-05-14T10:05:16.124Z,99348.70
2023-05-14T10:07:48.142Z,99355.39
2023-05-14T10:10:19.880Z,99347.92
2023-05-14T10:13:04.347Z,99348.90
2023-05-14T10:15:49.291Z,99348.04
2023-05-14T10:18:20.264Z,99344.60
2023-05-14T10:20:57.229Z,99338.50
2023-05-14T10:23:26.510Z,99328.27
2023-05-14T10:25:55.111Z,99324.08
2023-05-14T10:28:23.656Z,99320.92
2023-05-14T10:30:52.147Z,99311.34
2023-05-14T10:33:21.100Z,99303.63
2023-05-14T10:35:57.714Z,99299.29
2023-05-14T10:38:28.090Z,99294.80
2023-05-14T10:40:59.045Z,99293.90
2023-05-14T10:43:30.813Z,99286.31
2023-05-14T10:46:00.611Z,99282.63
2023-05-14T10:48:29.253Z,99282.27
2023-05-14T10:50:57.927Z,99275.27
2023-05-14T10:53:38.169Z,99269.26
2023-05-14T10:56:14.445Z,99260.02
2023-05-14T10:58:45.885Z,99257.09
2023-05-14T11:01:14.463Z,99251.90
2023-05-14T11:03:45.969Z,99253.08
2023-05-14T11:06:15.993Z,99250.77
2023-05-14T11:08:46.690Z,99250.59
2023-05-14T11:11:15.274Z,99248.66
2023-05-14T11:13:44.824Z,99248.10
2023-05-14T11:16:22.764Z,99247.59
2023-05-14T11:19:03.913Z,99243.02
2023-05-14T11:21:34.932Z,99245.48
2023-05-14T11:24:05.442Z,99239.85
2023-05-14T11:26:34.403Z,99233.52
2023-05-14T11:29:02.911Z,99233.83
2023-05-14T11:31:31.506Z,99235.36
2023-05-14T11:34:01.104Z,99232.19
2023-05-14T11:36:29.305Z,99235.33
2023-05-14T11:38:57.659Z,99231.55
2023-05-14T11:41:28.123Z,99230.90
2023-05-14T11:43:57.044Z,99230.69
2023-05-14T11:46:27.694Z,99223.30
2023-05-14T11:48:55.967Z,99220.38
2023-05-14T11:51:24.690Z,99218.66
2023-05-14T11:53:54.304Z,99221.44
2023-05-14T11:56:22.637Z,99216.33
2023-05-14T11:58:57.957Z,99217.66
2023-05-14T12:01:26.346Z,99219.42
2023-05-14T12:03:54.727Z,99211.55
2023-05-14T12:06:31.742Z,99210.98
2023-05-14T12:09:01.745Z,99207.67
2023-05-14T12:11:33.464Z,99206.71
2023-05-14T12:14:01.996Z,99204.25
2023-05-14T12:16:34.414Z,99199.42
2023-05-14T12:19:03.971Z,99190.48
2023-05-14T12:21:32.552Z,99187.87
2023-05-14T12:24:01.416Z,99177.86
2023-05-14T12:26:34.215Z,99169.04
2023-05-14T12:29:03.929Z,99162.33
2023-05-14T12:31:34.094Z,99163.98
2023-05-14T12:34:04.263Z,99155.23
2023-05-14T12:36:32.716Z,99151.02
2023-05-14T12:39:04.111Z,99137.38
2023-05-14T12:41:33.310Z,99131.66
2023-05-14T12:44:03.512Z,99127.13
2023-05-14T12:46:33.095Z,99121.29
2023-05-14T12:49:01.507Z,99122.46
2023-05-14T12:51:30.122Z,99120.64
2023-05-14T12:53:58.556Z,99122.08
2023-05-14T12:56:28.461Z,99123.20
2023-05-14T12:58:56.851Z,99121.14
2023-05-14T13:01:25.227Z,99112.08
2023-05-14T13:03:53.550Z,99108.65
2023-05-14T13:06:21.953Z,99109.03
2023-05-14T13:08:50.347Z,99110.36
2023-05-14T13:11:18.704Z,99115.73
2023-05-14T13:13:46.970Z,99118.77
2023-05-14T13:16:17.041Z,99124.92
2023-05-14T13:18:45.466Z,99123.20
2023-05-14T13:21:13.764Z,99114.27
2023-05-14T13:23:42.488Z,99110.23
2023-05-14T13:26:10.922Z,99104.39
2023-05-14T13:28:39.402Z,99102.94
2023-05-14T13:31:10.118Z,99103.52
2023-05-14T13:33:42.020Z,99104.81
2023-05-14T13:36:11.886Z,99102.58
2023-05-14T13:38:40.267Z,99092.92
2023-05-14T13:41:08.794Z,99087.59
2023-05-14T13:43:37.360Z,99087.95
2023-05-14T13:46:06.915Z,99090.45
2023-05-14T13:48:37.313Z,99086.83
2023-05-14T13:51:05.761Z,99085.45
2023-05-14T13:53:34.182Z,99081.45
2023-05-14T13:56:02.621Z,99086.38
2023-05-14T13:58:31.001Z,99082.44
2023-05-14T14:00:59.283Z,99079.20
2023-05-14T14:03:27.704Z,99070.85
2023-05-14T14:06:02.253Z,99067.06
2023-05-14T14:08:31.194Z,99063.34
2023-05-14T14:10:59.616Z,99064.89
2023-05-14T14:13:29.658Z,99057.17
2023-05-14T14:15:58.093Z,99046.48
2023-05-14T14:18:27.040Z,99045.48
2023-05-14T14:20:55.641Z,99040.33
2023-05-14T14:23:23.989Z,99033.64
2023-05-14T14:25:52.249Z,99032.08
2023-05-14T14:28:20.720Z,99028.63
2023-05-14T14:30:49.075Z,99024.38
2023-05-14T14:33:17.293Z,99023.81
2023-05-14T14:35:46.222Z,99022.17
2023-05-14T14:38:14.621Z,99024.89
2023-05-14T14:40:42.906Z,99020.64
2023-05-14T14:43:12.364Z,99019.13
2023-05-14T14:45:40.965Z,99018.69
2023-05-14T14:48:24.750Z,99016.58
2023-05-14T14:50:54.484Z,99007.52
2023-05-14T14:53:23.945Z,99002.37
2023-05-14T14:55:53.050Z,98997.33
2023-05-14T14:58:21.953Z,98994.69
2023-05-14T15:00:57.662Z,98990.05
2023-05-14T15:03:26.835Z,98984.48
2023-05-14T15:05:58.085Z,98982.91
2023-05-14T15:08:28.071Z,98978.11
2023-05-14T15:10:56.894Z,98971.64
2023-05-14T15:13:25.850Z,98969.65
2023-05-14T15:15:54.722Z,98974.13
2023-05-14T15:18:23.099Z,98974.55
2023-05-14T15:20:52.176Z,98977.31
2023-05-14T15:23:20.610Z,98973.19
2023-05-14T15:25:49.543Z,98971.05
2023-05-14T15:28:17.929Z,98963.23
2023-05-14T15:30:48.031Z,98958.63
2023-05-14T15:33:19.416Z,98955.59
2023-05-14T15:35:48.116Z,98953.64
2023-05-14T15:38:16.499Z,98954.75
2023-05-14T15:40:44.841Z,98952.48
2023-05-14T15:43:13.336Z,98949.98
2023-05-14T15:45:44.530Z,98946.64
2023-05-14T15:48:12.803Z,98945.82
2023-05-14T15:50:42.025Z,98945.80
2023-05-14T15:53:10.313Z,98939.23
2023-05-14T15:55:38.686Z,98942.55
2023-05-14T15:58:07.009Z,98940.79
2023-05-14T16:00:35.373Z,98942.05
2023-05-14T16:03:03.798Z,98940.02
2023-05-14T16:05:32.326Z,98936.58
2023-05-14T16:08:00.766Z,98931.48
2023-05-14T16:10:29.358Z,98926.94
2023-05-14T16:12:57.574Z,98919.94
2023-05-14T16:15:25.952Z,98916.28
2023-05-14T16:17:54.270Z,98908.46
2023-05-14T16:20:23.371Z,98900.28
2023-05-14T16:22:51.972Z,98900.46
2023-05-14T16:25:20.376Z,98899.73
2023-05-14T16:27:49.020Z,98898.53
2023-05-14T16:30:17.218Z,98895.20
2023-05-14T16:32:49.487Z,98890.96
2023-05-14T16:35:18.016Z,98890.23
2023-05-14T16:37:46.386Z,98886.80
2023-05-14T16:40:16.224Z,98888.20
2023-05-14T16:42:45.998Z,98886.27
2023-05-14T16:45:15.493Z,98885.29
2023-05-14T16:47:43.783Z,98884.33
2023-05-14T16:50:12.037Z,98886.20
2023-05-14T16:52:40.423Z,98883.49
2023-05-14T16:55:09.199Z,98875.84
2023-05-14T16:57:37.475Z,98875.14
2023-05-14T17:00:06.629Z,98871.47
2023-05-14T17:02:34.892Z,98866.54
2023-05-14T17:05:04.137Z,98863.13
2023-05-14T17:07:32.531Z,98863.13
2023-05-14T17:10:00.978Z,98864.23
2023-05-14T17:12:29.598Z,98867.16
2023-05-14T17:14:58.496Z,98865.52
2023-05-14T17:17:26.733Z,98862.36
2023-05-14T17:19:54.973Z,98859.66
2023-05-14T17:22:23.275Z,98861.65
2023-05-14T17:24:51.607Z,98859.23
2023-05-14T17:27:19.808Z,98857.75
2023-05-14T17:29:51.210Z,98859.30
2023-05-14T17:32:19.517Z,98860.80
2023-05-14T17:34:47.776Z,98864.47
2023-05-14T17:37:16.237Z,98859.91
2023-05-14T17:39:44.590Z,98864.68
2023-05-14T17:42:12.877Z,98877.09
2023-05-14T17:44:41.135Z,98888.90
2023-05-14T17:47:09.840Z,98887.33
2023-05-14T17:49:38.113Z,98880.16
2023-05-14T17:52:06.868Z,98870.44
2023-05-14T17:54:35.160Z,98874.64
2023-05-14T17:57:03.519Z,98885.02
2023-05-14T17:59:31.713Z,98897.05
2023-05-14T18:01:59.920Z,98900.17
2023-05-14T18:04:28.304Z,98874.80
2023-05-14T18:06:56.630Z,98854.99
2023-05-14T18:09:24.965Z,98856.50
2023-05-14T18:11:54.719Z,98866.75
2023-05-14T18:14:25.303Z,98867.36
2023-05-14T18:16:53.880Z,98856.60
2023-05-14T18:19:22.195Z,98849.36
2023-05-14T18:21:50.958Z,98848.23
2023-05-14T18:24:19.315Z,98853.84
2023-05-14T18:26:47.669Z,98847.93
2023-05-14T18:29:15.926Z,98849.60
2023-05-14T18:31:44.226Z,98848.23
2023-05-14T18:34:14.484Z,98847.63
2023-05-14T18:36:43.010Z,98849.48
2023-05-14T18:39:11.462Z,98853.80
2023-05-14T18:41:39.750Z,98857.98
2023-05-14T18:44:08.136Z,98858.84
2023-05-14T18:46:36.560Z,98853.86
2023-05-14T18:49:04.828Z,98859.69
2023-05-14T18:51:33.194Z,98863.30
2023-05-14T18:54:01.559Z,98869.30
2023-05-14T18:56:29.767Z,98875.13
2023-05-14T18:58:58.343Z,98874.07
2023-05-14T19:01:26.813Z,98881.11
2023-05-14T19:03:55.407Z,98886.22
2023-05-14T19:06:24.071Z,98895.86
2023-05-14T19:08:52.509Z,98902.98
2023-05-14T19:11:22.123Z,98910.05
2023-05-14T19:13:50.531Z,98914.52
2023-05-14T19:16:19.233Z,98913.70
2023-05-14T19:18:47.557Z,98908.29
2023-05-14T19:21:16.019Z,98906.94
2023-05-14T19:23:44.381Z,98907.40
2023-05-14T19:26:12.729Z,98908.66
2023-05-14T19:28:41.129Z,98907.09
2023-05-14T19:31:09.432Z,98906.75
2023-05-14T19:33:37.784Z,98904.23
2023-05-14T19:36:06.376Z,98906.65
2023-05-14T19:38:34.832Z,98905.96
2023-05-14T19:41:03.225Z,98902.39
2023-05-14T19:43:31.553Z,98900.25
2023-05-14T19:46:01.628Z,98905.08
2023-05-14T19:48:31.309Z,98906.94
2023-05-14T19:51:00.348Z,98908.65
2023-05-14T19:53:31.505Z,98911.94
2023-05-14T19:56:02.147Z,98912.23
2023-05-14T19:58:30.494Z,98913.38
2023-05-14T20:01:00.936Z,98920.02
2023-05-14T20:03:30.082Z,98920.05
2023-05-14T20:05:58.510Z,98919.44
2023-05-14T20:08:29.225Z,98923.27
2023-05-14T20:10:57.492Z,98918.50
2023-05-14T20:13:25.811Z,98916.34
2023-05-14T20:15:55.351Z,98911.95
2023-05-14T20:18:23.903Z,98909.29
2023-05-14T20:20:52.185Z,98894.42
2023-05-14T20:23:20.844Z,98883.35
2023-05-14T20:25:49.541Z,98880.40
2023-05-14T20:28:17.729Z,98873.55
2023-05-14T20:30:46.529Z,98872.67
2023-05-14T20:33:15.120Z,98864.29
2023-05-14T20:35:44.260Z,98859.25
2023-05-14T20:38:13.407Z,98858.94
2023-05-14T20:40:41.792Z,98854.66
2023-05-14T20:43:10.712Z,98848.40
2023-05-14T20:45:39.577Z,98838.00
2023-05-14T20:48:10.356Z,98838.92
2023-05-14T20:50:38.627Z,98837.57
2023-05-14T20:53:06.932Z,98833.55
2023-05-14T20:55:35.370Z,98822.66
2023-05-14T20:58:03.713Z,98809.66
2023-05-14T21:00:32.012Z,98800.80
2023-05-14T21:03:00.676Z,98797.33
2023-05-14T21:05:29.183Z,98790.79
2023-05-14T21:07:57.489Z,98787.02
2023-05-14T21:10:26.202Z,98780.82
2023-05-14T21:12:54.767Z,98778.36
2023-05-14T21:15:23.501Z,98771.38
2023-05-14T21:17:53.021Z,98763.40
2023-05-14T21:20:21.379Z,98758.21
2023-05-14T21:22:49.631Z,98750.39
2023-05-14T21:25:17.994Z,98742.23
2023-05-14T21:27:46.355Z,98733.57
2023-05-14T21:30:15.009Z,98732.01
2023-05-14T21:32:43.431Z,98734.59
2023-05-14T21:35:11.984Z,98736.17
2023-05-14T21:37:40.709Z,98729.87
2023-05-14T21:40:09.828Z,98726.91
2023-05-14T21:42:39.964Z,98724.27
2023-05-14T21:45:08.696Z,98728.52
2023-05-14T21:47:38.316Z,98732.50
2023-05-14T21:50:07.313Z,98728.81
2023-05-14T21:52:35.855Z,98729.30
2023-05-14T21:55:04.637Z,98728.48
2023-05-14T21:57:34.610Z,98727.08
2023-05-14T22:00:07.983Z,98714.58
2023-05-14T22:02:36.290Z,98706.16
2023-05-14T22:05:05.322Z,98704.92
2023-05-14T22:07:33.515Z,98702.65
2023-05-14T22:10:02.405Z,98704.20
2023-05-14T22:12:30.618Z,98713.42
2023-05-14T22:14:58.862Z,98715.23
2023-05-14T22:17:28.334Z,98718.13
2023-05-14T22:19:56.892Z,98717.20
2023-05-14T22:22:25.219Z,98720.73
2023-05-14T22:24:53.475Z,98723.11
2023-05-14T22:27:21.711Z,98719.95
2023-05-14T22:29:49.970Z,98706.01
2023-05-14T22:32:18.281Z,98687.84
2023-05-14T22:34:46.591Z,98673.41
2023-05-14T22:37:16.439Z,98660.20
2023-05-14T22:39:44.948Z,98651.21
2023-05-14T22:42:13.439Z,98639.23
2023-05-14T22:44:41.662Z,98638.29
2023-05-14T22:47:09.964Z,98641.93
2023-05-14T22:49:40.218Z,98647.48
2023-05-14T22:52:09.060Z,98653.00
2023-05-14T22:54:37.492Z,98654.97
2023-05-14T22:57:06.852Z,98656.35
2023-05-14T22:59:35.016Z,98657.44
2023-05-14T23:02:03.289Z,98657.97
2023-05-14T23:04:31.693Z,98658.76
2023-05-14T23:07:00.000Z,98654.74
2023-05-14T23:09:28.434Z,98649.50
2023-05-14T23:11:56.678Z,98656.91
2023-05-14T23:14:24.964Z,98658.64
2023-05-14T23:16:53.410Z,98661.36
2023-05-14T23:19:22.178Z,98658.29
2023-05-14T23:21:51.003Z,98655.38
2023-05-14T23:24:19.395Z,98649.86
2023-05-14T23:26:47.711Z,98646.04
2023-05-14T23:29:16.111Z,98643.61
2023-05-14T23:31:44.400Z,98638.84
2023-05-14T23:34:12.638Z,98631.13
2023-05-14T23:36:41.035Z,98628.06
2023-05-14T23:39:09.506Z,98629.73
2023-05-14T23:41:37.687Z,98623.06
2023-05-14T23:44:06.022Z,98615.23
2023-05-14T23:46:34.561Z,98611.66
2023-05-14T23:49:03.030Z,98611.02
2023-05-14T23:51:31.433Z,98607.65
2023-05-14T23:53:59.840Z,98600.45
2023-05-14T23:56:29.400Z,98597.52
2023-05-14T23:58:57.679Z,98597.41
